createdAt,value
2019-02-07T00:00:14.614Z,-4.21
2019-02-07T00:02:50.657Z,-3.79
2019-02-07T00:05:22.403Z,-3.85
2019-02-07T00:07:53.891Z,-3.50
2019-02-07T00:10:25.399Z,-3.50
2019-02-07T00:12:58.806Z,-3.36
2019-02-07T00:15:30.482Z,-3.34
2019-02-07T00:18:01.966Z,-3.45
2019-02-07T00:20:33.433Z,-3.49
2019-02-07T00:23:05.018Z,-3.68
2019-02-07T00:25:37.040Z,-3.48
2019-02-07T00:28:10.987Z,-3.52
2019-02-07T00:30:42.457Z,-3.46
2019-02-07T00:33:13.889Z,-3.44
2019-02-07T00:35:46.270Z,-3.36
2019-02-07T00:38:18.729Z,-3.81
2019-02-07T00:40:50.205Z,-3.50
2019-02-07T00:43:23.156Z,-3.65
2019-02-07T00:45:54.853Z,-3.50
2019-02-07T00:48:28.386Z,-3.71
2019-02-07T00:50:59.834Z,-3.91
2019-02-07T00:53:31.235Z,-3.71
2019-02-07T00:56:02.718Z,-3.70
2019-02-07T00:58:34.269Z,-3.51
2019-02-07T01:01:05.928Z,-3.52
2019-02-07T01:03:37.675Z,-3.67
2019-02-07T01:06:09.646Z,-3.80
2019-02-07T01:08:41.159Z,-3.56
2019-02-07T01:11:14.334Z,-3.58
2019-02-07T01:13:46.403Z,-3.72
2019-02-07T01:16:19.353Z,-3.81
2019-02-07T01:18:50.888Z,-3.79
2019-02-07T01:21:22.342Z,-3.61
2019-02-07T01:23:54.937Z,-3.74
2019-02-07T01:26:26.674Z,-3.68
2019-02-07T01:28:58.176Z,-3.64
2019-02-07T01:31:29.613Z,-3.59
2019-02-07T01:34:02.665Z,-3.41
2019-02-07T01:36:34.142Z,-3.58
2019-02-07T01:39:09.327Z,-3.49
2019-02-07T01:41:40.833Z,-3.34
2019-02-07T01:44:13.873Z,-3.37
2019-02-07T01:46:47.106Z,-3.32
2019-02-07T01:49:18.595Z,-3.38
2019-02-07T01:51:51.939Z,-3.29
2019-02-07T01:54:23.441Z,-3.23
2019-02-07T01:56:55.375Z,-3.30
2019-02-07T01:59:26.826Z,-3.33
2019-02-07T02:01:58.330Z,-2.97
2019-02-07T02:04:29.892Z,-3.66
2019-02-07T02:07:01.368Z,-3.35
2019-02-07T02:09:32.866Z,-3.37
2019-02-07T02:12:04.888Z,-3.42
2019-02-07T02:14:37.462Z,-3.16
2019-02-07T02:17:08.921Z,-3.11
2019-02-07T02:19:40.434Z,-3.00
2019-02-07T02:22:11.916Z,-3.06
2019-02-07T02:24:45.222Z,-3.16
2019-02-07T02:27:16.572Z,-3.18
2019-02-07T02:29:48.095Z,-3.14
2019-02-07T02:32:21.868Z,-3.03
2019-02-07T02:34:53.355Z,-2.93
2019-02-07T02:37:27.557Z,-3.20
2019-02-07T02:40:01.470Z,-3.23
2019-02-07T02:42:33.090Z,-3.12
2019-02-07T02:45:05.527Z,-3.26
2019-02-07T02:47:37.065Z,-3.63
2019-02-07T02:50:11.590Z,-3.67
2019-02-07T02:52:43.264Z,-3.59
2019-02-07T02:55:21.878Z,-3.04
2019-02-07T02:57:53.349Z,-3.27
2019-02-07T03:00:33.502Z,-3.22
2019-02-07T03:03:19.088Z,-3.05
2019-02-07T03:06:04.718Z,-3.01
2019-02-07T03:08:52.690Z,-3.55
2019-02-07T03:11:48.418Z,-3.93
2019-02-07T03:14:35.794Z,-3.63
2019-02-07T03:17:14.366Z,-3.82
2019-02-07T03:19:55.728Z,-3.85
2019-02-07T03:22:46.374Z,-3.47
2019-02-07T03:25:35.339Z,-3.20
2019-02-07T03:28:24.552Z,-3.08
2019-02-07T03:31:13.931Z,-3.42
2019-02-07T03:34:10.235Z,-3.13
2019-02-07T03:37:05.478Z,-3.22
2019-02-07T03:39:43.588Z,-3.20
2019-02-07T03:42:32.838Z,-2.94
2019-02-07T03:45:28.048Z,-3.16
2019-02-07T03:48:23.762Z,-3.14
2019-02-07T03:51:14.566Z,-3.29
2019-02-07T03:54:07.866Z,-3.08
2019-02-07T03:57:05.804Z,-3.21
2019-02-07T03:59:58.944Z,-3.47
2019-02-07T04:02:55.362Z,-3.40
2019-02-07T04:05:43.233Z,-3.47
2019-02-07T04:08:32.535Z,-3.20
2019-02-07T04:11:24.008Z,-3.25
2019-02-07T04:14:26.520Z,-3.32
2019-02-07T04:17:10.767Z,-2.98
2019-02-07T04:20:01.403Z,-3.12
2019-02-07T04:22:43.732Z,-3.26
2019-02-07T04:25:43.579Z,-3.34
2019-02-07T04:28:40.098Z,-3.30
2019-02-07T04:31:26.905Z,-3.25
2019-02-07T04:34:15.953Z,-3.20
2019-02-07T04:37:02.895Z,-3.45
2019-02-07T04:39:51.249Z,-3.42
2019-02-07T04:42:56.618Z,-3.35
2019-02-07T04:45:45.619Z,-3.26
2019-02-07T04:48:30.717Z,-3.78
2019-02-07T04:51:41.242Z,-3.62
2019-02-07T04:54:31.966Z,-3.40
2019-02-07T04:57:22.387Z,-3.93
2019-02-07T05:00:16.171Z,-3.95
2019-02-07T05:03:06.927Z,-3.98
2019-02-07T05:06:15.941Z,-3.95
2019-02-07T05:09:14.440Z,-4.12
2019-02-07T05:12:16.759Z,-4.06
2019-02-07T05:14:56.159Z,-3.80
2019-02-07T05:17:55.655Z,-3.81
2019-02-07T05:20:48.773Z,-4.18
2019-02-07T05:23:41.997Z,-4.10
2019-02-07T05:26:31.822Z,-3.96
2019-02-07T05:29:28.181Z,-3.88
2019-02-07T05:32:23.933Z,-3.78
2019-02-07T05:35:14.109Z,-3.70
2019-02-07T05:37:55.615Z,-3.87
2019-02-07T05:41:04.093Z,-3.80
2019-02-07T05:43:48.185Z,-4.33
2019-02-07T05:46:50.777Z,-4.38
2019-02-07T05:49:25.867Z,-3.99
2019-02-07T05:52:31.014Z,-4.44
2019-02-07T05:55:33.651Z,-4.02
2019-02-07T05:58:19.071Z,-3.91
2019-02-07T06:01:09.694Z,-3.93
2019-02-07T06:03:56.995Z,-4.02
2019-02-07T06:06:40.560Z,-4.01
2019-02-07T06:09:30.668Z,-4.01
2019-02-07T06:12:19.885Z,-3.74
2019-02-07T06:15:08.957Z,-3.70
2019-02-07T06:18:00.381Z,-3.75
2019-02-07T06:20:58.954Z,-4.03
2019-02-07T06:23:58.379Z,-3.65
2019-02-07T06:26:47.611Z,-3.88
2019-02-07T06:29:36.757Z,-4.09
2019-02-07T06:32:17.565Z,-3.97
2019-02-07T06:35:06.232Z,-3.72
2019-02-07T06:37:55.986Z,-3.83
2019-02-07T06:40:46.792Z,-3.63
2019-02-07T06:43:43.436Z,-3.59
2019-02-07T06:46:32.360Z,-3.62
2019-02-07T06:49:21.775Z,-3.74
2019-02-07T06:52:10.048Z,-3.68
2019-02-07T06:54:52.315Z,-3.67
2019-02-07T06:57:54.747Z,-3.99
2019-02-07T07:00:47.068Z,-3.84
2019-02-07T07:03:26.153Z,-3.82
2019-02-07T07:06:22.581Z,-3.68
2019-02-07T07:09:13.039Z,-3.52
2019-02-07T07:12:03.351Z,-3.56
2019-02-07T07:14:52.427Z,-3.41
2019-02-07T07:17:51.752Z,-3.40
2019-02-07T07:20:39.679Z,-3.43
2019-02-07T07:23:35.990Z,-3.30
2019-02-07T07:26:41.513Z,-3.23
2019-02-07T07:29:47.150Z,-3.24
2019-02-07T07:32:43.136Z,-3.13
2019-02-07T07:35:32.339Z,-2.96
2019-02-07T07:38:17.774Z,-3.17
2019-02-07T07:41:11.045Z,-3.05
2019-02-07T07:44:10.742Z,-3.20
2019-02-07T07:47:01.018Z,-2.92
2019-02-07T07:49:58.506Z,-2.66
2019-02-07T07:52:51.852Z,-2.53
2019-02-07T07:55:36.650Z,-2.77
2019-02-07T07:58:26.113Z,-2.59
2019-02-07T08:01:13.888Z,-2.64
2019-02-07T08:03:54.116Z,-2.66
2019-02-07T08:06:32.752Z,-2.57
2019-02-07T08:09:38.263Z,-2.84
2019-02-07T08:12:17.521Z,-2.39
2019-02-07T08:15:07.882Z,-2.24
2019-02-07T08:18:00.953Z,-2.02
2019-02-07T08:20:42.438Z,-2.07
2019-02-07T08:23:48.114Z,-1.91
2019-02-07T08:26:42.298Z,-1.76
2019-02-07T08:29:44.752Z,-1.39
2019-02-07T08:32:34.351Z,-1.43
2019-02-07T08:35:24.052Z,-1.27
2019-02-07T08:38:08.377Z,-1.37
2019-02-07T08:41:07.149Z,-1.03
2019-02-07T08:44:06.734Z,-1.11
2019-02-07T08:46:57.868Z,-0.89
2019-02-07T08:49:48.576Z,-1.25
2019-02-07T08:52:37.632Z,-0.94
2019-02-07T08:55:34.976Z,-0.83
2019-02-07T08:58:19.359Z,-0.75
2019-02-07T09:01:15.590Z,-0.64
2019-02-07T09:03:53.986Z,-0.44
2019-02-07T09:06:44.388Z,-0.43
2019-02-07T09:09:33.730Z,-0.29
2019-02-07T09:12:21.922Z,-0.40
2019-02-07T09:15:15.660Z,-0.21
2019-02-07T09:18:16.248Z,0.22
2019-02-07T09:21:05.533Z,0.61
2019-02-07T09:23:54.822Z,1.05
2019-02-07T09:26:57.572Z,1.62
2019-02-07T09:30:00.327Z,1.42
2019-02-07T09:32:53.704Z,1.41
2019-02-07T09:35:46.112Z,1.04
2019-02-07T09:38:39.276Z,1.05
2019-02-07T09:41:45.235Z,1.30
2019-02-07T09:44:51.015Z,0.94
2019-02-07T09:47:46.160Z,1.11
2019-02-07T09:50:36.946Z,1.26
2019-02-07T09:53:30.166Z,1.54
2019-02-07T09:56:19.795Z,1.90
2019-02-07T09:59:10.137Z,2.01
2019-02-07T10:01:59.440Z,2.04
2019-02-07T10:04:53.249Z,2.16
2019-02-07T10:07:40.443Z,2.20
2019-02-07T10:10:29.984Z,2.27
2019-02-07T10:13:19.119Z,2.28
2019-02-07T10:16:08.310Z,2.52
2019-02-07T10:18:48.762Z,2.67
2019-02-07T10:21:42.016Z,2.34
2019-02-07T10:24:35.416Z,2.55
2019-02-07T10:27:29.956Z,1.88
2019-02-07T10:30:23.502Z,2.18
2019-02-07T10:33:07.876Z,2.19
2019-02-07T10:36:16.907Z,2.17
2019-02-07T10:38:56.844Z,2.22
2019-02-07T10:41:52.557Z,2.55
2019-02-07T10:44:41.575Z,2.68
2019-02-07T10:47:33.454Z,2.77
2019-02-07T10:50:23.916Z,2.98
2019-02-07T10:53:17.308Z,3.13
2019-02-07T10:56:08.090Z,3.21
2019-02-07T10:59:07.713Z,3.53
2019-02-07T11:01:58.480Z,3.67
2019-02-07T11:04:52.396Z,3.65
2019-02-07T11:07:42.814Z,3.92
2019-02-07T11:10:34.280Z,3.99
2019-02-07T11:13:23.871Z,4.21
2019-02-07T11:16:20.043Z,4.42
2019-02-07T11:19:20.969Z,4.59
2019-02-07T11:21:58.797Z,4.88
2019-02-07T11:24:47.892Z,5.12
2019-02-07T11:27:44.405Z,5.10
2019-02-07T11:30:55.252Z,5.30
2019-02-07T11:33:54.270Z,5.57
2019-02-07T11:36:53.993Z,5.47
2019-02-07T11:39:45.768Z,5.62
2019-02-07T11:42:48.332Z,5.60
2019-02-07T11:45:38.094Z,5.71
2019-02-07T11:48:34.364Z,5.89
2019-02-07T11:51:23.969Z,6.06
2019-02-07T11:54:17.410Z,5.96
2019-02-07T11:57:13.848Z,6.20
2019-02-07T12:00:03.143Z,6.43
2019-02-07T12:03:11.896Z,6.65
2019-02-07T12:06:01.467Z,6.62
2019-02-07T12:08:59.785Z,6.39
2019-02-07T12:11:50.140Z,6.16
2019-02-07T12:14:58.635Z,6.23
2019-02-07T12:17:49.121Z,6.07
2019-02-07T12:20:30.366Z,6.03
2019-02-07T12:23:11.356Z,5.95
2019-02-07T12:26:07.497Z,5.97
2019-02-07T12:28:52.649Z,5.56
2019-02-07T12:31:53.635Z,5.50
2019-02-07T12:34:44.705Z,5.60
2019-02-07T12:37:38.144Z,5.78
2019-02-07T12:40:28.727Z,5.86
2019-02-07T12:43:25.207Z,6.28
2019-02-07T12:46:20.387Z,6.26
2019-02-07T12:49:28.960Z,6.20
2019-02-07T12:52:12.911Z,6.00
2019-02-07T12:54:55.424Z,6.20
2019-02-07T12:57:52.063Z,6.07
2019-02-07T13:00:39.465Z,6.12
2019-02-07T13:03:45.093Z,6.19
2019-02-07T13:06:39.586Z,6.12
2019-02-07T13:09:47.857Z,6.04
2019-02-07T13:12:29.711Z,6.01
2019-02-07T13:15:20.732Z,6.02
2019-02-07T13:18:12.044Z,6.11
2019-02-07T13:20:51.054Z,6.28
2019-02-07T13:23:40.384Z,6.39
2019-02-07T13:26:36.591Z,6.35
2019-02-07T13:29:28.765Z,6.34
2019-02-07T13:32:18.373Z,6.44
2019-02-07T13:35:06.613Z,6.27
2019-02-07T13:37:56.990Z,6.34
2019-02-07T13:40:44.661Z,6.34
2019-02-07T13:43:33.664Z,6.46
2019-02-07T13:46:30.931Z,6.43
2019-02-07T13:49:21.267Z,6.42
2019-02-07T13:52:12.177Z,6.47
2019-02-07T13:55:06.934Z,6.59
2019-02-07T13:57:57.421Z,6.63
2019-02-07T14:00:59.943Z,6.58
2019-02-07T14:03:48.952Z,6.50
2019-02-07T14:06:45.213Z,6.65
2019-02-07T14:09:34.143Z,6.74
2019-02-07T14:12:33.826Z,6.76
2019-02-07T14:15:28.933Z,6.62
2019-02-07T14:18:19.385Z,6.53
2019-02-07T14:21:04.935Z,6.43
2019-02-07T14:24:13.707Z,6.24
2019-02-07T14:27:03.654Z,6.02
2019-02-07T14:30:00.027Z,6.03
2019-02-07T14:32:53.379Z,6.03
2019-02-07T14:35:46.846Z,5.84
2019-02-07T14:38:36.112Z,5.82
2019-02-07T14:41:32.860Z,5.91
2019-02-07T14:44:23.329Z,5.78
2019-02-07T14:46:58.030Z,5.73
2019-02-07T14:49:30.757Z,5.75
2019-02-07T14:52:02.189Z,5.74
2019-02-07T14:54:33.690Z,5.65
2019-02-07T14:57:05.898Z,5.75
2019-02-07T14:59:37.448Z,5.68
2019-02-07T15:02:09.022Z,5.64
2019-02-07T15:04:40.942Z,5.51
2019-02-07T15:07:12.565Z,5.35
2019-02-07T15:09:47.246Z,5.28
2019-02-07T15:12:18.811Z,5.25
2019-02-07T15:14:50.332Z,5.24
2019-02-07T15:17:21.791Z,5.37
2019-02-07T15:19:53.262Z,5.20
2019-02-07T15:22:24.791Z,5.30
2019-02-07T15:24:56.323Z,5.31
2019-02-07T15:27:28.893Z,5.11
2019-02-07T15:30:00.448Z,5.05
2019-02-07T15:32:31.909Z,5.01
2019-02-07T15:35:03.533Z,4.92
2019-02-07T15:37:35.077Z,5.14
2019-02-07T15:40:12.920Z,5.06
2019-02-07T15:42:44.535Z,4.95
2019-02-07T15:45:16.362Z,5.11
2019-02-07T15:47:47.840Z,5.13
2019-02-07T15:50:23.281Z,5.05
2019-02-07T15:52:58.936Z,5.08
2019-02-07T15:55:30.652Z,4.78
2019-02-07T15:58:02.627Z,4.82
2019-02-07T16:00:49.849Z,4.88
2019-02-07T16:03:40.261Z,5.02
2019-02-07T16:06:12.026Z,4.96
2019-02-07T16:08:43.478Z,5.02
2019-02-07T16:11:14.993Z,5.03
2019-02-07T16:13:46.475Z,4.95
2019-02-07T16:16:17.950Z,4.97
2019-02-07T16:18:51.546Z,5.15
2019-02-07T16:21:23.092Z,5.06
2019-02-07T16:23:54.976Z,4.99
2019-02-07T16:26:26.463Z,4.87
2019-02-07T16:28:58.000Z,4.81
2019-02-07T16:31:29.747Z,4.89
2019-02-07T16:34:01.242Z,5.10
2019-02-07T16:36:34.766Z,5.00
2019-02-07T16:39:11.079Z,5.02
2019-02-07T16:41:42.484Z,4.90
2019-02-07T16:44:15.111Z,4.80
2019-02-07T16:46:46.749Z,4.90
2019-02-07T16:49:20.948Z,5.07
2019-02-07T16:51:52.405Z,5.08
2019-02-07T16:54:23.871Z,4.90
2019-02-07T16:56:55.378Z,4.74
2019-02-07T16:59:26.832Z,4.58
2019-02-07T17:01:59.407Z,4.42
2019-02-07T17:04:30.824Z,4.44
2019-02-07T17:07:02.335Z,4.55
2019-02-07T17:09:41.134Z,4.49
2019-02-07T17:12:13.288Z,4.45
2019-02-07T17:14:44.800Z,4.57
2019-02-07T17:17:16.347Z,4.54
2019-02-07T17:19:47.944Z,4.41
2019-02-07T17:22:19.525Z,4.49
2019-02-07T17:24:51.216Z,4.46
2019-02-07T17:27:22.989Z,4.53
2019-02-07T17:29:54.378Z,4.59
2019-02-07T17:32:25.834Z,4.40
2019-02-07T17:34:57.268Z,4.48
2019-02-07T17:37:29.069Z,4.49
2019-02-07T17:40:00.610Z,4.67
2019-02-07T17:42:32.491Z,4.70
2019-02-07T17:45:04.020Z,4.65
2019-02-07T17:47:35.725Z,4.63
2019-02-07T17:50:13.208Z,4.73
2019-02-07T17:52:44.759Z,4.75
2019-02-07T17:55:17.862Z,4.74
2019-02-07T17:57:49.402Z,4.82
2019-02-07T18:00:59.167Z,4.79
2019-02-07T18:03:30.773Z,4.83
2019-02-07T18:06:02.226Z,4.77
2019-02-07T18:08:33.890Z,4.75
2019-02-07T18:11:07.974Z,4.87
2019-02-07T18:13:40.542Z,4.75
2019-02-07T18:16:12.071Z,4.71
2019-02-07T18:18:43.579Z,4.78
2019-02-07T18:21:16.491Z,4.76
2019-02-07T18:23:47.970Z,4.81
2019-02-07T18:26:19.446Z,4.69
2019-02-07T18:28:50.908Z,4.73
2019-02-07T18:31:22.397Z,4.84
2019-02-07T18:33:54.133Z,4.72
2019-02-07T18:36:25.600Z,4.76
2019-02-07T18:38:57.140Z,4.85
2019-02-07T18:41:28.565Z,4.68
2019-02-07T18:44:00.314Z,4.67
2019-02-07T18:46:31.998Z,4.61
2019-02-07T18:49:03.484Z,4.64
2019-02-07T18:51:44.912Z,4.79
2019-02-07T18:54:08.673Z,4.77
2019-02-07T18:56:40.135Z,4.85
2019-02-07T18:59:11.952Z,4.82
2019-02-07T19:01:43.357Z,4.81
2019-02-07T19:04:14.846Z,4.92
2019-02-07T19:06:46.279Z,4.91
2019-02-07T19:09:17.717Z,4.94
2019-02-07T19:11:49.297Z,4.86
2019-02-07T19:14:23.885Z,4.88
2019-02-07T19:16:55.371Z,4.84
2019-02-07T19:19:28.562Z,4.72
2019-02-07T19:22:00.007Z,4.77
2019-02-07T19:24:31.935Z,4.82
2019-02-07T19:27:03.458Z,4.69
2019-02-07T19:29:34.923Z,4.71
2019-02-07T19:32:06.385Z,4.76
2019-02-07T19:34:39.607Z,4.77
2019-02-07T19:37:11.354Z,4.81
2019-02-07T19:39:42.802Z,4.61
2019-02-07T19:42:14.258Z,4.85
2019-02-07T19:44:45.787Z,4.75
2019-02-07T19:47:17.325Z,4.73
2019-02-07T19:49:48.969Z,4.77
2019-02-07T19:52:20.498Z,4.75
2019-02-07T19:54:51.989Z,4.74
2019-02-07T19:57:23.539Z,4.69
2019-02-07T19:59:55.044Z,4.66
2019-02-07T20:02:26.491Z,4.65
2019-02-07T20:04:57.919Z,4.71
2019-02-07T20:07:29.393Z,4.65
2019-02-07T20:10:00.843Z,4.65
2019-02-07T20:12:33.985Z,4.68
2019-02-07T20:15:10.671Z,4.68
2019-02-07T20:17:42.232Z,4.68
2019-02-07T20:20:14.629Z,4.63
2019-02-07T20:22:46.294Z,4.59
2019-02-07T20:25:18.461Z,4.67
2019-02-07T20:27:50.204Z,4.52
2019-02-07T20:30:28.890Z,4.42
2019-02-07T20:33:01.983Z,4.54
2019-02-07T20:35:33.599Z,4.57
2019-02-07T20:38:06.008Z,4.51
2019-02-07T20:40:37.634Z,4.68
2019-02-07T20:43:09.695Z,4.64
2019-02-07T20:45:41.214Z,4.53
2019-02-07T20:48:12.790Z,4.60
2019-02-07T20:50:44.314Z,4.50
2019-02-07T20:53:17.838Z,4.55
2019-02-07T20:55:49.723Z,4.52
2019-02-07T20:58:21.246Z,4.60
2019-02-07T21:00:52.914Z,4.66
2019-02-07T21:03:24.427Z,4.69
2019-02-07T21:05:59.699Z,4.51
2019-02-07T21:08:30.837Z,4.41
2019-02-07T21:11:02.516Z,4.56
2019-02-07T21:13:38.637Z,4.58
2019-02-07T21:16:10.053Z,4.60
2019-02-07T21:18:43.465Z,4.39
2019-02-07T21:21:15.178Z,4.35
2019-02-07T21:23:46.783Z,4.55
2019-02-07T21:26:18.335Z,4.51
2019-02-07T21:28:49.862Z,4.38
2019-02-07T21:31:21.283Z,4.45
2019-02-07T21:33:52.767Z,4.42
2019-02-07T21:36:24.199Z,4.35
2019-02-07T21:38:55.893Z,4.39
2019-02-07T21:41:27.350Z,4.33
2019-02-07T21:43:58.804Z,4.23
2019-02-07T21:46:30.323Z,4.15
2019-02-07T21:49:02.260Z,4.14
2019-02-07T21:51:33.803Z,4.23
2019-02-07T21:54:05.660Z,4.16
2019-02-07T21:56:37.332Z,4.10
2019-02-07T21:59:09.664Z,4.18
2019-02-07T22:01:41.230Z,4.02
2019-02-07T22:04:13.019Z,3.89
2019-02-07T22:06:44.557Z,3.98
2019-02-07T22:09:17.005Z,4.11
2019-02-07T22:11:48.573Z,3.95
2019-02-07T22:14:20.034Z,4.00
2019-02-07T22:16:51.480Z,3.85
2019-02-07T22:19:22.977Z,3.88
2019-02-07T22:21:54.767Z,3.94
2019-02-07T22:24:26.653Z,4.03
2019-02-07T22:26:58.113Z,4.17
2019-02-07T22:29:29.629Z,4.04
2019-02-07T22:32:01.058Z,3.97
2019-02-07T22:34:32.692Z,4.24
2019-02-07T22:37:04.159Z,4.04
2019-02-07T22:39:35.609Z,4.05
2019-02-07T22:42:07.057Z,3.80
2019-02-07T22:44:38.626Z,3.86
2019-02-07T22:47:12.022Z,3.58
2019-02-07T22:49:43.505Z,3.87
2019-02-07T22:52:14.936Z,3.52
2019-02-07T22:54:49.108Z,3.53
2019-02-07T22:57:20.515Z,3.66
2019-02-07T22:59:51.974Z,3.65
2019-02-07T23:02:23.478Z,3.69
2019-02-07T23:04:55.021Z,3.61
2019-02-07T23:07:26.445Z,3.61
2019-02-07T23:09:57.841Z,3.52
2019-02-07T23:12:29.896Z,3.28
2019-02-07T23:15:01.359Z,3.39
2019-02-07T23:17:33.087Z,3.53
2019-02-07T23:20:06.179Z,3.39
2019-02-07T23:22:39.237Z,3.29
2019-02-07T23:25:11.724Z,3.41
2019-02-07T23:27:43.139Z,3.13
2019-02-07T23:30:15.249Z,3.25
2019-02-07T23:32:46.870Z,3.42
2019-02-07T23:35:18.456Z,3.42
2019-02-07T23:37:49.798Z,3.46
2019-02-07T23:40:22.034Z,3.35
2019-02-07T23:42:53.662Z,3.28
2019-02-07T23:45:25.343Z,3.34
2019-02-07T23:47:56.762Z,3.31
2019-02-07T23:50:28.206Z,3.41
2019-02-07T23:52:59.648Z,3.42
2019-02-07T23:55:31.106Z,3.40
2019-02-07T23:58:02.846Z,3.39
